ADDS METAR Data INFO
IDs: Format: Raw Decoded Include TAF

Data at: 2100 UTC 19 Jul 2018

K9D7 192055Z AUTO 00000KT 10SM FEW041 28/18 A2982 RMK AO2
K9D7 192035Z AUTO 00000KT 10SM FEW043 FEW120 28/19 A2983 RMK AO2
K9D7 192015Z AUTO 00000KT 10SM FEW040 FEW047 SCT120 28/19 A2983 RMK AO2
K9D7 191955Z AUTO 00000KT 10SM FEW037 FEW048 BKN120 28/19 A2984 RMK AO2
K9D7 191935Z AUTO 00000KT 10SM FEW035 FEW044 SCT050 27/20 A2984 RMK AO2
K9D7 191915Z AUTO 21004KT 10SM FEW038 FEW048 FEW055 27/19 A2984 RMK AO2
K9D7 191855Z AUTO 00000KT 10SM SCT038 SCT048 BKN110 27/19 A2985 RMK AO2
K9D7 191835Z AUTO 00000KT 10SM SCT037 SCT046 BKN110 26/18 A2985 RMK AO2
K9D7 191815Z AUTO 00000KT 10SM CLR 27/18 A2985 RMK AO2
K9D7 191755Z AUTO VRB04KT 10SM CLR 27/19 A2983 RMK AO2
K9D7 191735Z AUTO VRB03KT 10SM CLR 27/19 A2984 RMK AO2
K9D7 191715Z AUTO 04004KT 10SM CLR 26/19 A2985 RMK AO2
K9D7 191655Z AUTO 00000KT 10SM CLR 25/23 A2985 RMK AO2
K9D7 191635Z AUTO 00000KT 10SM CLR 24/24 A2985 RMK AO2
K9D7 191615Z AUTO 35007KT 10SM SCT022 SCT085 24/24 A2985 RMK AO2
K9D7 191555Z AUTO 00000KT 10SM SCT085 24/24 A2985 RMK AO2
K9D7 191535Z AUTO 24004KT 10SM FEW085 23/24 A2984 RMK AO2
K9D7 191515Z AUTO 19004KT 10SM SCT085 23/23 A2984 RMK AO2
K9D7 191455Z AUTO 21004KT 10SM BKN085 22/22 A2984 RMK AO2
K9D7 191435Z AUTO 17004KT 10SM FEW090 22/22 A2984 RMK AO2
K9D7 191415Z AUTO 00000KT 10SM SCT090 SCT110 21/21 A2985 RMK AO2
K9D7 191355Z AUTO 16003KT 10SM BKN090 20/20 A2985 RMK AO2
K9D7 191335Z AUTO 29005KT 10SM FEW100 20/20 A2985 RMK AO2
K9D7 191315Z AUTO 00000KT 10SM CLR 20/20 A2985 RMK AO2
K9D7 191255Z AUTO 18004KT 10SM FEW100 19/19 A2984 RMK AO2
K9D7 191235Z AUTO 00000KT 10SM SCT100 18/18 A2985 RMK AO2
K9D7 191215Z AUTO 14005KT 10SM FEW100 17/17 A2985 RMK AO2
K9D7 191155Z AUTO 00000KT 10SM CLR 16/16 A2984 RMK AO2
K9D7 191135Z AUTO 31005KT 10SM CLR 16/16 A2984 RMK AO2
K9D7 191115Z AUTO 30003KT 10SM CLR 16/16 A2985 RMK AO2
K9D7 191055Z AUTO 00000KT 10SM CLR 16/16 A2985 RMK AO2
K9D7 191035Z AUTO 00000KT 10SM CLR 16/16 A2984 RMK AO2
K9D7 191015Z AUTO 00000KT 10SM CLR 16/16 A2984 RMK AO2
K9D7 190955Z AUTO 00000KT 10SM CLR 16/16 A2984 RMK AO2
K9D7 190935Z AUTO 28004KT 10SM CLR 16/16 A2985 RMK AO2
K9D7 190915Z AUTO 00000KT 10SM CLR 17/17 A2985 RMK AO2
K9D7 190855Z AUTO 00000KT 10SM CLR 16/17 A2986 RMK AO2
K9D7 190835Z AUTO 00000KT 10SM CLR 17/17 A2987 RMK AO2
K9D7 190815Z AUTO 00000KT 10SM CLR 16/16 A2987 RMK AO2
K9D7 190755Z AUTO 00000KT 10SM CLR 16/16 A2987 RMK AO2
K9D7 190735Z AUTO 30003KT 10SM CLR 16/16 A2987 RMK AO2
K9D7 190715Z AUTO 00000KT 10SM CLR 16/16 A2988 RMK AO2
K9D7 190655Z AUTO 18005KT 10SM CLR 16/16 A2987 RMK AO2
K9D7 190635Z AUTO 17005KT 10SM FEW110 17/17 A2988 RMK AO2
K9D7 190615Z AUTO 18006KT 10SM SCT110 17/17 A2988 RMK AO2
K9D7 190555Z AUTO 27003KT 10SM CLR 18/18 A2989 RMK AO2
K9D7 190535Z AUTO 18005KT 10SM CLR 18/18 A2988 RMK AO2
K9D7 190515Z AUTO 19004KT 10SM CLR 18/18 A2989 RMK AO2
K9D7 190455Z AUTO 19005KT 10SM CLR 19/19 A2989 RMK AO2
K9D7 190435Z AUTO 20005KT 10SM CLR 19/19 A2989 RMK AO2
K9D7 190415Z AUTO 19006KT 10SM CLR 19/19 A2989 RMK AO2
K9D7 190355Z AUTO 18005KT 10SM CLR 19/19 A2989 RMK AO2
K9D7 190335Z AUTO 18005KT 10SM CLR 19/19 A2989 RMK AO2
K9D7 190315Z AUTO 18005KT 10SM CLR 19/19 A2990 RMK AO2
K9D7 190255Z AUTO 17005KT 10SM CLR 19/19 A2990 RMK AO2
K9D7 190235Z AUTO 17006KT 10SM CLR 20/20 A2990 RMK AO2
K9D7 190215Z AUTO 18005KT 10SM CLR 21/21 A2989 RMK AO2
K9D7 190155Z AUTO 18005KT 10SM CLR 22/22 A2989 RMK AO2
K9D7 190135Z AUTO 19003KT 10SM CLR 23/23 A2989 RMK AO2
K9D7 190115Z AUTO 22004KT 10SM CLR 23/21 A2989 RMK AO2
K9D7 190055Z AUTO 20004KT 10SM CLR 25/20 A2989 RMK AO2
K9D7 190035Z AUTO 18006KT 10SM CLR 25/19 A2989 RMK AO2
K9D7 190015Z AUTO 18008KT 10SM CLR 26/20 A2990 RMK AO2
K9D7 182355Z AUTO 19009KT 10SM CLR 26/21 A2991 RMK AO2
K9D7 182335Z AUTO 21004KT 10SM FEW095 SCT110 26/20 A2991 RMK AO2
K9D7 182315Z AUTO 20005KT 10SM SCT100 26/19 A2992 RMK AO2
K9D7 182255Z AUTO 25007KT 10SM CLR 26/20 A2992 RMK AO2
K9D7 182235Z AUTO 21007KT 10SM FEW110 26/21 A2992 RMK AO2 LTG DSNT N AND NW
K9D7 182215Z AUTO 20011KT 10SM FEW048 FEW055 SCT110 27/21 A2992 RMK AO2
K9D7 182155Z AUTO 18012KT 10SM VCTS FEW041 FEW055 29/22 A2992 RMK AO2 LTG DSNT NW
K9D7 182135Z AUTO 17012KT 10SM FEW041 29/22 A2992 RMK AO2
K9D7 182115Z AUTO 18008KT 150V210 10SM CLR 29/21 A2992 RMK AO2
K9D7 182055Z AUTO 17010KT 10SM CLR 30/22 A2993 RMK AO2
K9D7 182035Z AUTO 17010KT 10SM CLR 29/22 A2993 RMK AO2
K9D7 182015Z AUTO 18008KT 10SM CLR 28/22 A2994 RMK AO2
K9D7 181955Z AUTO 16008G14KT 10SM CLR 28/23 A2994 RMK AO2
K9D7 181935Z AUTO 17009G18KT 10SM CLR 28/23 A2995 RMK AO2
K9D7 181915Z AUTO 17008KT 10SM CLR 28/22 A2995 RMK AO2
K9D7 181855Z AUTO 16008KT 10SM CLR 27/21 A2996 RMK AO2
K9D7 181835Z AUTO 17009KT 10SM CLR 27/22 A2997 RMK AO2
K9D7 181815Z AUTO 15008KT 10SM CLR 26/21 A2997 RMK AO2
K9D7 181755Z AUTO 15008KT 10SM CLR 25/21 A2998 RMK AO2
K9D7 181735Z AUTO 13008KT 10SM CLR 26/21 A2998 RMK AO2
K9D7 181715Z AUTO 15008KT 10SM CLR 25/21 A2999 RMK AO2
K9D7 181655Z AUTO 16009KT 10SM CLR 25/21 A2999 RMK AO2
K9D7 181635Z AUTO 15009KT 10SM CLR 24/20 A3000 RMK AO2
K9D7 181615Z AUTO 15008KT 10SM CLR 24/20 A3000 RMK AO2
K9D7 181555Z AUTO 15009KT 10SM CLR 24/20 A3000 RMK AO2
K9D7 181535Z AUTO 16008G15KT 10SM CLR 24/20 A3000 RMK AO2
K9D7 181515Z AUTO 15008KT 10SM CLR 23/19 A3001 RMK AO2
K9D7 181455Z AUTO 16010KT 10SM CLR 23/19 A3001 RMK AO2
K9D7 181435Z AUTO 15011KT 10SM CLR 23/21 A3002 RMK AO2
K9D7 181415Z AUTO 15010KT 10SM CLR 22/22 A3002 RMK AO2
K9D7 181355Z AUTO 15011KT 10SM CLR 22/22 A3003 RMK AO2
K9D7 181335Z AUTO 14008KT 10SM CLR 21/21 A3003 RMK AO2
K9D7 181315Z AUTO 14008KT 10SM CLR 20/20 A3004 RMK AO2
K9D7 181255Z AUTO 15007KT 10SM CLR 19/19 A3004 RMK AO2
K9D7 181235Z AUTO 5/20833305KT 10SM CLR 17/17 A3004 RMK AO2
K9D7 181215Z AUTO 12004KT 10SM CLR 16/16 A3005 RMK AO2
K9D7 181155Z AUTO 11004KT 10SM CLR 15/15 A3005 RMK AO2
K9D7 181135Z AUTO 12004KT 10SM CLR 14/14 A3005 RMK AO2
K9D7 181115Z AUTO 12006KT 10SM CLR 14/14 A3005 RMK AO2
K9D7 181055Z AUTO 12006KT 10SM CLR 14/14 A3005 RMK AO2
K9D7 181035Z AUTO 11006KT 10SM CLR 14/14 A3005 RMK AO2
K9D7 181015Z AUTO 12006KT 10SM CLR 14/14 A3005 RMK AO2
K9D7 180955Z AUTO 11006KT 10SM CLR 14/14 A3005 RMK AO2
K9D7 180935Z AUTO 12005KT 10SM CLR 14/14 A3006 RMK AO2
K9D7 180915Z AUTO 13006KT 10SM CLR 13/13 A3006 RMK AO2